Terminal Aerodrome Forecast
Issued by NWS

Home | Current Version | Previous Version | Text Only | Print | Product List | Glossary On
Versions: 1 2 3 4 5 6 7 8 9 10 11 12
000
FTUS46 KPDT 300523
TAFBDN
TAF
KBDN 300523Z 3006/0106 34005KT P6SM SCT035
     FM300800 VRB05KT P6SM SCT040
     FM301700 35006KT P6SM SCT050
     FM302100 35012G18KT P6SM SCT060
     FM010300 02006KT P6SM FEW060=

USA.gov is the U.S. government's official web portal to all federal, state and local government web resources and services.